createdAt,value
2023-03-07T00:00:15.811Z,4.18
2023-03-07T00:02:44.714Z,4.18
2023-03-07T00:05:14.893Z,4.18
2023-03-07T00:07:43.458Z,4.18
2023-03-07T00:10:13.661Z,4.17
2023-03-07T00:12:42.232Z,4.18
2023-03-07T00:15:12.033Z,4.18
2023-03-07T00:17:40.842Z,4.19
2023-03-07T00:20:14.368Z,4.18
2023-03-07T00:22:43.678Z,4.18
2023-03-07T00:25:14.985Z,4.18
2023-03-07T00:27:43.485Z,4.19
2023-03-07T00:30:13.038Z,4.20
2023-03-07T00:32:41.673Z,4.19
2023-03-07T00:35:10.577Z,4.20
2023-03-07T00:37:39.841Z,4.21
2023-03-07T00:40:10.833Z,4.20
2023-03-07T00:42:40.455Z,4.22
2023-03-07T00:45:10.884Z,4.23
2023-03-07T00:47:39.164Z,4.26
2023-03-07T00:50:08.552Z,4.28
2023-03-07T00:52:37.413Z,4.30
2023-03-07T00:55:06.744Z,4.32
2023-03-07T00:57:35.306Z,4.33
2023-03-07T01:00:07.226Z,4.35
2023-03-07T01:02:35.787Z,4.36
2023-03-07T01:05:04.933Z,4.38
2023-03-07T01:07:33.517Z,4.41
2023-03-07T01:10:02.209Z,4.41
2023-03-07T01:12:30.803Z,4.42
2023-03-07T01:14:59.342Z,4.41
2023-03-07T01:17:28.928Z,4.41
2023-03-07T01:19:57.459Z,4.39
2023-03-07T01:22:25.918Z,4.41
2023-03-07T01:24:54.431Z,4.41
2023-03-07T01:27:22.668Z,4.42
2023-03-07T01:29:51.355Z,4.41
2023-03-07T01:32:19.970Z,4.42
2023-03-07T01:34:49.556Z,4.42
2023-03-07T01:37:18.858Z,4.43
2023-03-07T01:39:48.070Z,4.44
2023-03-07T01:42:18.783Z,4.43
2023-03-07T01:45:03.563Z,4.42
2023-03-07T01:47:41.180Z,4.42
2023-03-07T01:50:15.946Z,4.42
2023-03-07T01:52:50.852Z,4.42
2023-03-07T01:55:23.604Z,4.42
2023-03-07T01:57:57.627Z,4.42
2023-03-07T02:00:29.773Z,4.41
2023-03-07T02:03:09.660Z,4.42
2023-03-07T02:05:46.421Z,4.43
2023-03-07T02:08:17.699Z,4.42
2023-03-07T02:10:46.658Z,4.41
2023-03-07T02:13:15.305Z,4.41
2023-03-07T02:15:44.871Z,4.40
2023-03-07T02:18:19.111Z,4.39
2023-03-07T02:21:00.537Z,4.37
2023-03-07T02:23:41.597Z,4.35
2023-03-07T02:26:17.720Z,4.34
2023-03-07T02:28:48.917Z,4.33
2023-03-07T02:31:18.641Z,4.32
2023-03-07T02:33:47.345Z,4.32
2023-03-07T02:36:21.493Z,4.30
2023-03-07T02:39:02.616Z,4.30
2023-03-07T02:41:34.486Z,4.29
2023-03-07T02:44:09.704Z,4.28
2023-03-07T02:46:38.346Z,4.28
2023-03-07T02:49:06.818Z,4.28
2023-03-07T02:51:35.426Z,4.26
2023-03-07T02:54:04.083Z,4.26
2023-03-07T02:56:32.811Z,4.26
2023-03-07T02:59:01.293Z,4.27
2023-03-07T03:01:31.585Z,4.28
2023-03-07T03:04:00.454Z,4.28
2023-03-07T03:06:28.668Z,4.29
2023-03-07T03:08:56.884Z,4.29
2023-03-07T03:11:25.609Z,4.29
2023-03-07T03:13:54.063Z,4.30
2023-03-07T03:16:23.550Z,4.31
2023-03-07T03:18:53.125Z,4.31
2023-03-07T03:21:21.697Z,4.30
2023-03-07T03:23:50.241Z,4.30
2023-03-07T03:26:19.141Z,4.29
2023-03-07T03:28:47.652Z,4.30
2023-03-07T03:31:16.749Z,4.30
2023-03-07T03:33:46.067Z,4.30
2023-03-07T03:36:18.114Z,4.30
2023-03-07T03:38:50.222Z,4.28
2023-03-07T03:41:18.462Z,4.25
2023-03-07T03:43:48.876Z,4.24
2023-03-07T03:46:19.569Z,4.21
2023-03-07T03:48:53.281Z,4.18
2023-03-07T03:51:25.621Z,4.17
2023-03-07T03:53:57.506Z,4.15
2023-03-07T03:56:27.748Z,4.14
2023-03-07T03:58:57.850Z,4.11
2023-03-07T04:01:29.416Z,4.09
2023-03-07T04:03:59.494Z,4.07
2023-03-07T04:06:32.421Z,4.05
2023-03-07T04:09:02.295Z,4.04
2023-03-07T04:11:30.787Z,4.03
2023-03-07T04:13:59.908Z,4.03
2023-03-07T04:16:28.767Z,4.02
2023-03-07T04:18:57.507Z,4.02
2023-03-07T04:21:26.120Z,4.01
2023-03-07T04:23:58.557Z,4.00
2023-03-07T04:26:32.445Z,3.98
2023-03-07T04:29:01.191Z,3.99
2023-03-07T04:31:36.035Z,3.99
2023-03-07T04:34:05.923Z,3.99
2023-03-07T04:36:34.809Z,3.99
2023-03-07T04:39:05.253Z,4.01
2023-03-07T04:41:34.627Z,4.02
2023-03-07T04:44:10.638Z,4.03
2023-03-07T04:46:39.236Z,4.03
2023-03-07T04:49:07.772Z,4.04
2023-03-07T04:51:36.690Z,4.03
2023-03-07T04:54:06.344Z,4.03
2023-03-07T04:56:35.357Z,3.99
2023-03-07T04:59:04.569Z,4.00
2023-03-07T05:01:33.197Z,3.97
2023-03-07T05:04:02.627Z,3.97
2023-03-07T05:06:31.281Z,3.97
2023-03-07T05:08:59.867Z,3.96
2023-03-07T05:11:30.019Z,3.96
2023-03-07T05:13:58.570Z,3.97
2023-03-07T05:16:27.889Z,3.98
2023-03-07T05:18:56.474Z,3.98
2023-03-07T05:21:25.132Z,3.98
2023-03-07T05:23:53.697Z,3.96
2023-03-07T05:26:22.355Z,3.96
2023-03-07T05:28:51.987Z,3.96
2023-03-07T05:31:20.504Z,3.97
2023-03-07T05:33:48.896Z,3.97
2023-03-07T05:36:17.641Z,3.97
2023-03-07T05:38:46.292Z,3.99
2023-03-07T05:41:14.870Z,3.98
2023-03-07T05:43:45.385Z,3.99
2023-03-07T05:46:15.652Z,4.01
2023-03-07T05:48:44.413Z,4.01
2023-03-07T05:51:12.894Z,4.01
2023-03-07T05:53:41.736Z,4.02
2023-03-07T05:56:10.415Z,4.03
2023-03-07T05:58:39.784Z,4.04
2023-03-07T06:01:08.469Z,4.05
2023-03-07T06:03:38.461Z,4.05
2023-03-07T06:06:07.632Z,4.08
2023-03-07T06:08:36.176Z,4.09
2023-03-07T06:11:04.584Z,4.10
2023-03-07T06:13:33.421Z,4.11
2023-03-07T06:16:02.021Z,4.11
2023-03-07T06:18:30.605Z,4.10
2023-03-07T06:21:02.210Z,4.11
2023-03-07T06:23:36.066Z,4.11
2023-03-07T06:26:10.245Z,4.12
2023-03-07T06:28:39.394Z,4.12
2023-03-07T06:31:10.617Z,4.14
2023-03-07T06:33:39.288Z,4.16
2023-03-07T06:36:11.936Z,4.18
2023-03-07T06:38:42.557Z,4.21
2023-03-07T06:41:12.048Z,4.21
2023-03-07T06:43:41.370Z,4.25
2023-03-07T06:46:09.970Z,4.27
2023-03-07T06:48:42.075Z,4.30
2023-03-07T06:51:16.258Z,4.33
2023-03-07T06:53:47.288Z,4.35
2023-03-07T06:56:15.808Z,4.38
2023-03-07T06:58:45.233Z,4.40
2023-03-07T07:01:19.473Z,4.42
2023-03-07T07:03:51.024Z,4.44
2023-03-07T07:06:21.492Z,4.44
2023-03-07T07:08:50.838Z,4.45
2023-03-07T07:11:19.451Z,4.49
2023-03-07T07:13:48.106Z,4.52
2023-03-07T07:16:20.672Z,4.54
2023-03-07T07:18:51.926Z,4.58
2023-03-07T07:21:22.589Z,4.63
2023-03-07T07:23:50.822Z,4.64
2023-03-07T07:26:19.847Z,4.68
2023-03-07T07:28:48.321Z,4.71
2023-03-07T07:31:16.904Z,4.75
2023-03-07T07:33:46.521Z,4.77
2023-03-07T07:36:16.648Z,4.81
2023-03-07T07:38:46.965Z,4.85
2023-03-07T07:41:15.755Z,4.93
2023-03-07T07:43:46.573Z,5.01
2023-03-07T07:46:28.308Z,5.09
2023-03-07T07:48:57.194Z,5.15
2023-03-07T07:51:28.083Z,5.20
2023-03-07T07:53:57.832Z,5.25
2023-03-07T07:56:26.077Z,5.27
2023-03-07T07:58:54.723Z,5.31
2023-03-07T08:01:25.832Z,5.31
2023-03-07T08:03:54.729Z,5.31
2023-03-07T08:06:25.483Z,5.33
2023-03-07T08:08:54.298Z,5.34
2023-03-07T08:11:24.959Z,5.36
2023-03-07T08:13:54.035Z,5.37
2023-03-07T08:16:24.142Z,5.39
2023-03-07T08:18:55.808Z,5.44
2023-03-07T08:21:25.343Z,5.47
2023-03-07T08:23:55.052Z,5.53
2023-03-07T08:26:25.365Z,5.59
2023-03-07T08:28:53.906Z,5.63
2023-03-07T08:31:24.573Z,5.67
2023-03-07T08:33:53.692Z,5.72
2023-03-07T08:36:22.197Z,5.78
2023-03-07T08:38:52.434Z,5.85
2023-03-07T08:41:22.226Z,5.93
2023-03-07T08:43:51.884Z,6.04
2023-03-07T08:46:20.217Z,6.12
2023-03-07T08:48:48.943Z,6.22
2023-03-07T08:51:19.230Z,6.31
2023-03-07T08:53:47.947Z,6.41
2023-03-07T08:56:19.196Z,6.54
2023-03-07T08:58:47.738Z,6.65
2023-03-07T09:01:17.284Z,6.77
2023-03-07T09:03:45.930Z,6.88
2023-03-07T09:06:18.815Z,6.95
2023-03-07T09:08:48.288Z,7.02
2023-03-07T09:11:17.842Z,7.07
2023-03-07T09:13:52.634Z,7.17
2023-03-07T09:16:24.604Z,7.29
2023-03-07T09:18:53.308Z,7.44
2023-03-07T09:21:21.628Z,7.54
2023-03-07T09:23:50.008Z,7.59
2023-03-07T09:26:18.459Z,7.64
2023-03-07T09:28:46.953Z,7.70
2023-03-07T09:31:17.058Z,7.75
2023-03-07T09:33:47.233Z,7.79
2023-03-07T09:36:18.005Z,7.82
2023-03-07T09:38:47.173Z,7.77
2023-03-07T09:41:57.595Z,7.67
2023-03-07T09:44:50.297Z,7.63
2023-03-07T09:48:53.440Z,7.48
2023-03-07T09:51:26.112Z,7.41
2023-03-07T09:53:58.838Z,7.38
2023-03-07T09:56:33.499Z,7.41
2023-03-07T09:59:20.480Z,7.40
2023-03-07T10:01:55.747Z,7.45
2023-03-07T10:04:34.156Z,7.47
2023-03-07T10:07:05.935Z,7.52
2023-03-07T10:09:35.303Z,7.59
2023-03-07T10:12:37.511Z,7.66
2023-03-07T10:15:24.436Z,7.70
2023-03-07T10:18:09.876Z,7.81
2023-03-07T10:20:46.780Z,7.97
2023-03-07T10:23:38.111Z,8.16
2023-03-07T10:26:12.641Z,8.34
2023-03-07T10:28:43.633Z,8.43
2023-03-07T10:31:23.655Z,8.46
2023-03-07T10:33:54.491Z,8.51
2023-03-07T10:36:38.342Z,8.52
2023-03-07T10:39:21.549Z,8.48
2023-03-07T10:41:50.272Z,8.66
2023-03-07T10:44:21.614Z,8.98
2023-03-07T10:46:56.920Z,9.26
2023-03-07T10:49:29.092Z,9.53
2023-03-07T10:52:04.164Z,9.60
2023-03-07T10:54:36.591Z,9.66
2023-03-07T10:57:12.270Z,9.72
2023-03-07T10:59:44.001Z,9.94
2023-03-07T11:02:32.333Z,10.18
2023-03-07T11:05:01.065Z,10.22
2023-03-07T11:07:32.315Z,10.05
2023-03-07T11:10:23.551Z,9.82
2023-03-07T11:12:52.223Z,9.65
2023-03-07T11:15:24.580Z,9.50
2023-03-07T11:17:54.515Z,9.43
2023-03-07T11:20:25.372Z,9.37
2023-03-07T11:23:23.293Z,9.23
2023-03-07T11:25:54.696Z,9.17
2023-03-07T11:28:30.935Z,9.12
2023-03-07T11:31:14.752Z,9.07
2023-03-07T11:33:59.764Z,9.02
2023-03-07T11:36:33.399Z,9.01
2023-03-07T11:39:08.248Z,9.02
2023-03-07T11:41:38.625Z,9.02
2023-03-07T11:44:26.452Z,9.13
2023-03-07T11:47:15.260Z,9.37
2023-03-07T11:49:58.367Z,9.66
2023-03-07T11:52:52.962Z,9.65
2023-03-07T11:55:31.647Z,9.52
2023-03-07T11:58:20.682Z,9.38
2023-03-07T12:01:06.213Z,9.20
2023-03-07T12:04:03.008Z,9.05
2023-03-07T12:06:39.792Z,9.02
2023-03-07T12:09:24.707Z,9.03
2023-03-07T12:12:10.982Z,9.06
2023-03-07T12:14:51.125Z,9.10
2023-03-07T12:17:43.526Z,9.11
2023-03-07T12:20:29.660Z,9.05
2023-03-07T12:23:17.206Z,8.93
2023-03-07T12:25:50.485Z,8.80
2023-03-07T12:28:27.918Z,8.71
2023-03-07T12:31:08.348Z,8.60
2023-03-07T12:33:55.113Z,8.49
2023-03-07T12:36:34.096Z,8.43
2023-03-07T12:39:14.131Z,8.38
2023-03-07T12:41:59.474Z,8.33
2023-03-07T12:44:36.851Z,8.29
2023-03-07T12:47:17.623Z,8.25
2023-03-07T12:49:54.697Z,8.21
2023-03-07T12:52:36.530Z,8.18
2023-03-07T12:55:17.785Z,8.14
2023-03-07T12:57:54.419Z,8.17
2023-03-07T13:00:24.456Z,8.19
2023-03-07T13:03:02.140Z,8.21
2023-03-07T13:05:38.111Z,8.27
2023-03-07T13:08:08.978Z,8.32
2023-03-07T13:10:38.007Z,8.37
2023-03-07T13:13:56.908Z,8.41
2023-03-07T13:16:40.865Z,8.41
2023-03-07T13:19:44.685Z,8.38
2023-03-07T13:22:58.127Z,8.35
2023-03-07T13:26:15.020Z,8.31
2023-03-07T13:28:51.235Z,8.28
2023-03-07T13:31:45.601Z,8.23
2023-03-07T13:34:55.786Z,8.21
2023-03-07T13:37:55.411Z,8.17
2023-03-07T13:40:52.844Z,8.18
2023-03-07T13:44:01.514Z,8.15
2023-03-07T13:46:51.063Z,8.15
2023-03-07T13:49:46.320Z,8.13
2023-03-07T13:52:45.722Z,8.11
2023-03-07T13:55:41.801Z,8.08
2023-03-07T13:58:24.708Z,8.07
2023-03-07T14:00:58.860Z,8.05
2023-03-07T14:03:36.778Z,8.01
2023-03-07T14:06:12.584Z,8.00
2023-03-07T14:08:41.820Z,8.00
2023-03-07T14:11:22.979Z,7.97
2023-03-07T14:14:28.720Z,7.93
2023-03-07T14:17:15.412Z,7.89
2023-03-07T14:19:55.896Z,7.86
2023-03-07T14:22:42.526Z,7.84
2023-03-07T14:25:22.899Z,7.80
2023-03-07T14:27:57.964Z,7.78
2023-03-07T14:30:28.432Z,7.76
2023-03-07T14:32:56.959Z,7.73
2023-03-07T14:35:42.029Z,7.69
2023-03-07T14:38:18.663Z,7.69
2023-03-07T14:41:09.683Z,7.66
2023-03-07T14:43:54.553Z,7.65
2023-03-07T14:46:34.618Z,7.66
2023-03-07T14:49:16.877Z,7.67
2023-03-07T14:51:46.786Z,7.66
2023-03-07T14:54:19.385Z,7.64
2023-03-07T14:56:51.171Z,7.58
2023-03-07T14:59:28.606Z,7.53
2023-03-07T15:02:00.120Z,7.48
2023-03-07T15:04:31.295Z,7.42
2023-03-07T15:07:04.413Z,7.37
2023-03-07T15:09:34.546Z,7.32
2023-03-07T15:12:08.293Z,7.28
2023-03-07T15:14:45.410Z,7.25
2023-03-07T15:17:18.164Z,7.24
2023-03-07T15:19:49.762Z,7.24
2023-03-07T15:22:25.021Z,7.27
2023-03-07T15:24:54.661Z,7.26
2023-03-07T15:27:27.970Z,7.23
2023-03-07T15:29:56.986Z,7.20
2023-03-07T15:32:35.248Z,7.14
2023-03-07T15:35:15.322Z,7.12
2023-03-07T15:37:56.190Z,7.08
2023-03-07T15:40:29.882Z,7.07
2023-03-07T15:43:02.229Z,7.06
2023-03-07T15:45:34.967Z,7.05
2023-03-07T15:48:11.085Z,7.03
2023-03-07T15:50:39.659Z,6.99
2023-03-07T15:53:19.374Z,6.98
2023-03-07T15:55:57.603Z,6.97
2023-03-07T15:58:27.031Z,6.94
2023-03-07T16:01:18.504Z,6.89
2023-03-07T16:03:53.774Z,6.89
2023-03-07T16:06:37.009Z,6.88
2023-03-07T16:09:08.338Z,6.86
2023-03-07T16:11:38.165Z,6.85
2023-03-07T16:14:07.012Z,6.87
2023-03-07T16:16:35.617Z,6.90
2023-03-07T16:19:04.134Z,6.90
2023-03-07T16:21:32.659Z,6.91
2023-03-07T16:24:01.240Z,6.90
2023-03-07T16:26:32.022Z,6.90
2023-03-07T16:29:01.547Z,6.91
2023-03-07T16:31:30.159Z,6.92
2023-03-07T16:33:58.758Z,6.91
2023-03-07T16:36:27.399Z,6.90
2023-03-07T16:38:55.867Z,6.88
2023-03-07T16:41:24.354Z,6.88
2023-03-07T16:43:57.109Z,6.85
2023-03-07T16:46:26.558Z,6.84
2023-03-07T16:48:54.852Z,6.84
2023-03-07T16:51:26.026Z,6.82
2023-03-07T16:53:56.645Z,6.82
2023-03-07T16:56:29.501Z,6.81
2023-03-07T16:59:01.034Z,6.80
2023-03-07T17:01:29.607Z,6.80
2023-03-07T17:03:57.803Z,6.78
2023-03-07T17:06:38.401Z,6.78
2023-03-07T17:09:09.695Z,6.77
2023-03-07T17:11:39.945Z,6.76
2023-03-07T17:14:12.289Z,6.77
2023-03-07T17:16:45.003Z,6.75
2023-03-07T17:19:25.904Z,6.74
2023-03-07T17:21:54.614Z,6.74
2023-03-07T17:24:23.092Z,6.73
2023-03-07T17:26:53.466Z,6.73
2023-03-07T17:29:30.112Z,6.73
2023-03-07T17:31:58.534Z,6.74
2023-03-07T17:34:29.581Z,6.72
2023-03-07T17:36:59.032Z,6.72
2023-03-07T17:39:28.395Z,6.72
2023-03-07T17:41:56.828Z,6.74
2023-03-07T17:44:26.372Z,6.74
2023-03-07T17:46:55.443Z,6.75
2023-03-07T17:49:24.291Z,6.77
2023-03-07T17:51:53.012Z,6.77
2023-03-07T17:54:21.602Z,6.78
2023-03-07T17:56:50.144Z,6.78
2023-03-07T17:59:18.680Z,6.79
2023-03-07T18:01:48.297Z,6.79
2023-03-07T18:04:16.986Z,6.78
2023-03-07T18:06:45.543Z,6.79
2023-03-07T18:09:15.232Z,6.79
2023-03-07T18:11:43.753Z,6.79
2023-03-07T18:14:12.653Z,6.77
2023-03-07T18:16:43.722Z,6.77
2023-03-07T18:19:25.403Z,6.76
2023-03-07T18:21:54.903Z,6.75
2023-03-07T18:24:26.335Z,6.75
2023-03-07T18:26:55.753Z,6.74
2023-03-07T18:29:25.050Z,6.73
2023-03-07T18:31:53.892Z,6.74
2023-03-07T18:34:24.894Z,6.73
2023-03-07T18:36:54.291Z,6.73
2023-03-07T18:39:23.633Z,6.72
2023-03-07T18:41:52.370Z,6.74
2023-03-07T18:44:20.935Z,6.72
2023-03-07T18:46:49.520Z,6.72
2023-03-07T18:49:18.150Z,6.70
2023-03-07T18:51:48.440Z,6.69
2023-03-07T18:54:17.424Z,6.70
2023-03-07T18:56:47.778Z,6.73
2023-03-07T18:59:17.274Z,6.74
2023-03-07T19:01:50.067Z,6.74
2023-03-07T19:04:19.066Z,6.75
2023-03-07T19:06:49.823Z,6.77
2023-03-07T19:09:20.806Z,6.79
2023-03-07T19:11:49.443Z,6.81
2023-03-07T19:14:17.977Z,6.84
2023-03-07T19:16:46.810Z,6.83
2023-03-07T19:19:15.374Z,6.80
2023-03-07T19:21:43.939Z,6.77
2023-03-07T19:24:13.841Z,6.72
2023-03-07T19:26:43.261Z,6.70
2023-03-07T19:29:12.978Z,6.64
2023-03-07T19:31:43.677Z,6.58
2023-03-07T19:34:12.470Z,6.51
2023-03-07T19:36:42.345Z,6.47
2023-03-07T19:39:15.034Z,6.42
2023-03-07T19:41:47.821Z,6.37
2023-03-07T19:44:16.945Z,6.34
2023-03-07T19:46:47.054Z,6.33
2023-03-07T19:49:16.315Z,6.34
2023-03-07T19:51:44.607Z,6.35
2023-03-07T19:54:14.936Z,6.35
2023-03-07T19:56:45.604Z,6.36
2023-03-07T19:59:14.846Z,6.35
2023-03-07T20:01:43.678Z,6.35
2023-03-07T20:04:13.316Z,6.35
2023-03-07T20:06:43.129Z,6.36
2023-03-07T20:09:13.141Z,6.38
2023-03-07T20:11:43.220Z,6.42
2023-03-07T20:14:14.405Z,6.43
2023-03-07T20:16:43.335Z,6.43
2023-03-07T20:19:11.862Z,6.44
2023-03-07T20:21:42.385Z,6.43
2023-03-07T20:24:10.795Z,6.44
2023-03-07T20:26:40.841Z,6.44
2023-03-07T20:29:10.669Z,6.47
2023-03-07T20:31:40.988Z,6.48
2023-03-07T20:34:09.782Z,6.50
2023-03-07T20:36:39.316Z,6.52
2023-03-07T20:39:13.064Z,6.55
2023-03-07T20:41:42.815Z,6.57
2023-03-07T20:44:14.205Z,6.60
2023-03-07T20:46:44.768Z,6.62
2023-03-07T20:49:14.827Z,6.63
2023-03-07T20:51:44.215Z,6.65
2023-03-07T20:54:15.472Z,6.66
2023-03-07T20:56:45.496Z,6.65
2023-03-07T20:59:16.620Z,6.64
2023-03-07T21:01:46.697Z,6.61
2023-03-07T21:04:17.737Z,6.62
2023-03-07T21:06:48.061Z,6.63
2023-03-07T21:09:17.934Z,6.62
2023-03-07T21:11:49.070Z,6.62
2023-03-07T21:14:19.580Z,6.60
2023-03-07T21:16:49.350Z,6.60
2023-03-07T21:19:18.974Z,6.60
2023-03-07T21:21:47.485Z,6.59
2023-03-07T21:24:16.470Z,6.58
2023-03-07T21:26:52.105Z,6.56
2023-03-07T21:29:20.416Z,6.57
2023-03-07T21:31:50.148Z,6.55
2023-03-07T21:34:18.808Z,6.58
2023-03-07T21:36:47.898Z,6.60
2023-03-07T21:39:16.475Z,6.60
2023-03-07T21:41:45.093Z,6.61
2023-03-07T21:44:14.427Z,6.63
2023-03-07T21:46:42.734Z,6.63
2023-03-07T21:49:13.053Z,6.63
2023-03-07T21:51:41.332Z,6.62
2023-03-07T21:54:10.063Z,6.62
2023-03-07T21:56:38.833Z,6.62
2023-03-07T21:59:07.796Z,6.63
2023-03-07T22:01:36.391Z,6.62
2023-03-07T22:04:04.933Z,6.63
2023-03-07T22:06:36.690Z,6.63
2023-03-07T22:09:05.684Z,6.65
2023-03-07T22:11:34.190Z,6.64
2023-03-07T22:14:02.732Z,6.65
2023-03-07T22:16:31.231Z,6.66
2023-03-07T22:18:59.515Z,6.67
2023-03-07T22:21:27.926Z,6.68
2023-03-07T22:24:00.978Z,6.69
2023-03-07T22:26:31.598Z,6.68
2023-03-07T22:29:00.375Z,6.67
2023-03-07T22:31:28.661Z,6.65
2023-03-07T22:33:58.746Z,6.62
2023-03-07T22:36:27.258Z,6.60
2023-03-07T22:38:57.372Z,6.58
2023-03-07T22:41:26.517Z,6.57
2023-03-07T22:43:55.038Z,6.54
2023-03-07T22:46:23.929Z,6.51
2023-03-07T22:48:57.552Z,6.50
2023-03-07T22:51:27.046Z,6.50
2023-03-07T22:53:56.996Z,6.49
2023-03-07T22:56:28.055Z,6.51
2023-03-07T22:58:56.680Z,6.52
2023-03-07T23:01:27.858Z,6.52
2023-03-07T23:03:58.698Z,6.51
2023-03-07T23:06:30.363Z,6.50
2023-03-07T23:09:01.884Z,6.48
2023-03-07T23:11:32.907Z,6.48
2023-03-07T23:14:02.001Z,6.49
2023-03-07T23:16:32.535Z,6.46
2023-03-07T23:19:01.361Z,6.46
2023-03-07T23:21:33.095Z,6.47
2023-03-07T23:24:04.968Z,6.45
2023-03-07T23:26:35.917Z,6.44
2023-03-07T23:29:05.670Z,6.43
2023-03-07T23:31:36.599Z,6.41
2023-03-07T23:34:07.526Z,6.38
2023-03-07T23:36:36.305Z,6.37
2023-03-07T23:39:06.705Z,6.36
2023-03-07T23:41:35.405Z,6.35
2023-03-07T23:44:04.434Z,6.35
2023-03-07T23:46:33.554Z,6.34
2023-03-07T23:49:02.107Z,6.33
2023-03-07T23:51:30.845Z,6.31
2023-03-07T23:53:59.373Z,6.33
2023-03-07T23:56:28.976Z,6.32
2023-03-07T23:58:57.255Z,6.31
